• Join FlightAware (Why Join?)
  • Login
  • US Flag 
04:12AM EDT


 

Airport Tracker/Info


-or-


 

Live Flight TrackerFlight Track Log ✈ JBU1503 ✈ 03-Sep-2013 ✈ KJFK - TJSJ / SJU

Flight Track Log - Related Links

Times and Time Zones

All times are in EDT time to prevent confusion due to time zone crossing. See the JBU1503 flight status page for this flight to view local times or setup timezone preferences in your user account.

Time Position Orientation Groundspeed Altitude Reporting Facility
EDT Latitude Longitude Course Direction KTS MPH feet Rate Location/Type
12:08AM 40.6319 -73.8503 148° Southeast 187 215 2,100  Level New York Center
12:09AM 40.5833 -73.8833 207° Southwest 284 327 4,600 2,820 Climbing New York TRACON
12:10AM 39.5413 -71.9266 129° Southeast  Level FlightAware Approximate
12:11AM 39.4775 -71.8239 129° Southeast  Level FlightAware Approximate
12:11AM 40.4925 -73.6803 120° Southeast 306 352 10,700  Level New York Center
12:12AM 39.4135 -71.7215 129° Southeast  Level FlightAware Approximate
12:12AM 40.4433 -73.5553 117° Southeast 360 414 12,200  Level New York Center
12:13AM 39.3321 -71.6444 148° Southeast  Level FlightAware Approximate
12:13AM 40.3647 -73.4486 134° Southeast 391 450 13,900  Level New York Center
12:14AM 40.2797 -73.3392 135° Southeast 425 489 16,600 2,220 Climbing New York Center
12:15AM 40.1944 -73.2328 136° Southeast 430 495 18,400 1,800 Climbing New York Center
12:16AM 40.1131 -73.1322 137° Southeast 440 506 20,200 1,800 Climbing New York Center
12:17AM 40.0236 -73.0233 137° Southeast 440 506 22,000 1,560 Climbing New York Center
12:18AM 39.9300 -72.9067 136° Southeast 445 512 23,400 1,200 Climbing New York Center
12:19AM 39.8361 -72.7875 136° Southeast 459 528 24,500 1,140 Climbing New York Center
12:20AM 39.7403 -72.6686 136° Southeast 472 543 25,700 1,440 Climbing New York Center
12:21AM 39.6419 -72.5447 136° Southeast 477 549 27,400 2,040 Climbing New York Center
12:22AM 39.5500 -72.4319 137° Southeast 477 549 29,800 1,740 Climbing New York Center
12:23AM 39.4575 -72.3250 138° Southeast 456 525 30,900 1,200 Climbing New York Center
12:24AM 39.3694 -72.2128 135° Southeast 451 519 32,300 1,320 Climbing New York Center
12:25AM 39.2769 -72.1036 138° Southeast 451 519 33,600 1,500 Climbing New York Center
12:26AM 39.1886 -71.9919 136° Southeast 445 512 35,300 1,620 Climbing New York Center
12:27AM 39.1042 -71.8861 136° Southeast 434 499 36,900 840 Climbing New York Center
12:28AM 39.0156 -71.7858 139° Southeast 429 494 37,000  Climbing New York Center
12:29AM 38.9289 -71.6806 137° Southeast 429 494 37,000  Level New York Center
12:30AM 38.8419 -71.5756 137° Southeast 429 494 37,000  Level New York Center
12:31AM 38.7550 -71.4706 137° Southeast 434 499 37,000 -60 Level New York Center
12:32AM 38.6681 -71.3658 137° Southeast 434 499 36,900 -60 Descending New York Center
12:33AM 38.5789 -71.2669 139° Southeast 434 499 36,900  Level New York Center
12:34AM 38.4878 -71.1600 137° Southeast 434 499 37,000  Climbing New York Center
12:35AM 38.3983 -71.0561 138° Southeast 439 505 37,000  Level New York Center
12:36AM 38.3089 -70.9447 136° Southeast 439 505 37,000  Level New York Center
12:37AM 38.2172 -70.8439 139° Southeast 444 511 37,000  Level New York Center
12:38AM 38.1214 -70.7486 142° Southeast 439 505 37,000  Level New York Center
12:39AM 38.0192 -70.6592 145° Southeast 434 499 37,000  Level New York Center
12:40AM 37.9108 -70.6014 157° South 434 499 37,000  Level New York Center
12:40AM 38.0000 -70.5833 153° Southeast 433 498 37,000  Level New York Oceanic (ODAPS)
12:41AM 37.8000 -70.5356 153° Southeast 434 499 37,000  Level New York Center
12:42AM 37.6956 -70.4572 149° Southeast 429 494 37,000 -60 Level New York Center
12:43AM 37.5850 -70.3947 156° South 429 494 36,900  Descending New York Center
12:45AM 37.4779 -70.2423 154° Southeast  Level FlightAware Approximate
12:52AM 36.7968 -69.8328 154° Southeast  Level FlightAware Approximate
12:53AM 36.6994 -69.7749 155° Southeast  Level FlightAware Approximate
12:54AM 36.6020 -69.7171 155° Southeast  Level FlightAware Approximate
12:55AM 36.5046 -69.6595 154° Southeast  Level FlightAware Approximate
12:56AM 36.4072 -69.6017 154° Southeast  Level FlightAware Approximate
12:57AM 36.3098 -69.5441 155° Southeast  Level FlightAware Approximate
12:58AM 36.2123 -69.4867 155° Southeast  Level FlightAware Approximate
12:58AM 36.1667 -69.4500 143° Southeast 456 525 37,000  Level New York Oceanic (ODAPS)
12:59AM 36.1194 -69.4203 142° Southeast  Level FlightAware Approximate
01:00AM 36.0345 -69.3379 142° Southeast  Level FlightAware Approximate
01:01AM 35.9496 -69.2556 142° Southeast  Level FlightAware Approximate
01:02AM 35.8646 -69.1736 142° Southeast  Level FlightAware Approximate
01:03AM 35.7796 -69.0917 142° Southeast  Level FlightAware Approximate
01:04AM 35.3568 -68.6921 143° Southeast 456 525 37,000  Level FlightAware Transoceanic
01:05AM 35.2552 -68.5984 143° Southeast 456 525 37,000  Level FlightAware Transoceanic
01:06AM 35.1536 -68.5050 143° Southeast 456 525 37,000  Level FlightAware Transoceanic
01:07AM 35.0519 -68.4118 143° Southeast 456 525 37,000  Level FlightAware Transoceanic
01:08AM 34.9501 -68.3188 143° Southeast 456 525 37,000  Level FlightAware Transoceanic
01:09AM 34.8482 -68.2261 143° Southeast 456 525 37,000  Level FlightAware Transoceanic
01:10AM 34.7463 -68.1336 143° Southeast 456 525 37,000  Level FlightAware Transoceanic
01:11AM 34.6443 -68.0413 143° Southeast 456 525 37,000  Level FlightAware Transoceanic
01:11AM 34.7128 -68.0069 144° Southeast 442 509 37,000  Level New York Center
01:12AM 34.5423 -67.9493 143° Southeast 456 525 37,000  Level FlightAware Transoceanic
01:12AM 34.6128 -67.9147 143° Southeast 454 522 37,000  Level New York Center
01:13AM 34.4401 -67.8575 143° Southeast 456 525 37,000  Level FlightAware Transoceanic
01:13AM 34.5169 -67.8372 146° Southeast 464 534 37,000  Level New York Center
01:14AM 34.3379 -67.7659 144° Southeast 456 525 37,000  Level FlightAware Transoceanic
01:14AM 34.3964 -67.7686 155° Southeast 451 519 37,000  Level New York Center
01:15AM 34.2967 -67.7044 152° Southeast 451 519 37,000  Level New York Center
01:16AM 34.1775 -67.6161 148° Southeast 456 525 37,000  Level New York Center
01:17AM 34.0614 -67.5603 158° South 450 518 37,000  Level New York Center
01:18AM 33.9503 -67.5344 169° South 481 554 37,000  Level New York Center
01:19AM 33.8117 -67.5050 170° South 466 536 37,000  Level New York Center
01:20AM 33.6922 -67.4772 169° South 453 521 37,000  Level New York Center
01:21AM 33.5622 -67.4547 172° South 454 522 37,000  Level New York Center
01:22AM 33.4447 -67.4247 168° South 454 522 37,000  Level New York Center
01:23AM 33.3314 -67.4019 170° South 460 529 37,000  Level New York Center
01:24AM 33.1972 -67.3750 170° South 445 512 37,000  Level New York Center
01:25AM 33.0736 -67.3503 170° South 452 520 37,000  Level New York Center
01:26AM 32.9625 -67.3275 170° South 447 514 37,000  Level New York Center
01:27AM 32.8239 -67.2986 170° South 454 522 37,000  Level New York Center
01:28AM 32.7108 -67.2783 171° South 460 529 37,000  Level New York Center
01:29AM 32.5786 -67.2469 169° South 455 524 37,000  Level New York Center
01:30AM 32.4486 -67.2203 170° South 464 534 37,000  Level New York Center
01:31AM 32.3394 -67.1978 170° South 455 524 37,000  Level New York Center
01:32AM 32.1972 -67.1719 171° South 461 531 37,000  Level New York Center
01:33AM 32.0733 -67.1453 170° South 461 531 37,000  Level New York Center
01:34AM 31.9581 -67.1206 170° South 461 531 37,000  Level New York Center
01:35AM 31.8175 -67.0925 170° South 469 540 37,000  Level New York Center
01:36AM 31.7067 -67.0728 171° South 460 529 37,000  Level New York Center
01:37AM 31.5639 -67.0422 170° South 469 540 37,000  Level New York Center
01:38AM 31.4361 -67.0186 171° South 469 540 37,000  Level New York Center
01:39AM 31.3231 -66.9942 170° South 469 540 37,000  Level New York Center
01:40AM 31.1828 -66.9664 170° South 464 534 37,000  Level New York Center
01:41AM 31.0589 -66.9403 170° South 469 540 37,000  Level New York Center
01:42AM 30.9458 -66.9208 172° South 464 534 37,000  Level New York Center
01:43AM 30.8056 -66.8908 170° South 464 534 37,000  Level New York Center
01:44AM 30.6881 -66.8647 169° South 469 540 37,000  Level New York Center
01:45AM 30.5519 -66.8392 171° South 464 534 37,000  Level New York Center
01:46AM 30.4264 -66.8158 171° South 469 540 37,000  Level New York Center
01:47AM 30.3178 -66.7992 172° South 459 528 37,000  Level New York Center
01:48AM 30.1733 -66.7767 172° South 465 535 37,000  Level New York Center
01:49AM 30.0486 -66.7797 181° South 460 529 37,000  Level New York Center
01:50AM 29.9189 -66.7544 170° South 461 531 37,000  Level New York Center
01:52AM 29.7371 -66.6748 170° South  Level FlightAware Approximate
01:53AM 29.9167 -66.7167 170° South 452 520 37,000  Level New York Oceanic (ODAPS)
01:59AM 28.9190 -66.5173 170° South  Level FlightAware Approximate
02:00AM 28.6714 -66.4752 170° South 452 520 37,000  Level FlightAware Transoceanic
02:01AM 28.5469 -66.4514 170° South 452 520 37,000  Level FlightAware Transoceanic
02:02AM 28.4223 -66.4276 170° South 452 520 37,000  Level FlightAware Transoceanic
02:03AM 28.2978 -66.4039 170° South 452 520 37,000  Level FlightAware Transoceanic
02:04AM 28.1732 -66.3803 171° South 452 520 37,000  Level FlightAware Transoceanic
02:05AM 28.0487 -66.3567 171° South 452 520 37,000  Level FlightAware Transoceanic
02:06AM 27.9241 -66.3331 171° South 452 520 37,000  Level FlightAware Transoceanic
02:07AM 27.7995 -66.3096 171° South 452 520 37,000  Level FlightAware Transoceanic
02:08AM 27.6749 -66.2862 171° South 452 520 37,000  Level FlightAware Transoceanic
02:09AM 27.5504 -66.2628 171° South 452 520 37,000  Level FlightAware Transoceanic
02:10AM 27.4258 -66.2395 171° South 452 520 37,000  Level FlightAware Transoceanic
02:11AM 27.3012 -66.2162 171° South 452 520 37,000  Level FlightAware Transoceanic
02:12AM 27.1766 -66.1929 171° South 452 520 37,000  Level FlightAware Transoceanic
02:13AM 27.0520 -66.1698 171° South 452 520 37,000  Level FlightAware Transoceanic
02:14AM 26.9274 -66.1467 171° South 452 520 37,000  Level FlightAware Transoceanic
02:15AM 26.8028 -66.1236 171° South 452 520 37,000  Level FlightAware Transoceanic
02:16AM 26.6782 -66.1005 171° South 452 520 37,000  Level FlightAware Transoceanic
02:17AM 26.5536 -66.0776 171° South 452 520 37,000  Level FlightAware Transoceanic
02:18AM 26.4290 -66.0547 171° South 452 520 37,000  Level FlightAware Transoceanic
02:19AM 26.3044 -66.0318 171° South 452 520 37,000  Level FlightAware Transoceanic
02:20AM 26.1797 -66.0090 171° South 452 520 37,000  Level FlightAware Transoceanic
02:21AM 26.0551 -65.9862 171° South 452 520 37,000  Level FlightAware Transoceanic
02:22AM 25.9305 -65.9635 171° South 452 520 37,000  Level FlightAware Transoceanic
02:23AM 25.8058 -65.9408 171° South 452 520 37,000  Level FlightAware Transoceanic
02:24AM 25.6812 -65.9181 171° South 452 520 37,000  Level FlightAware Transoceanic
02:25AM 25.5566 -65.8956 171° South 452 520 37,000  Level FlightAware Transoceanic
02:26AM 25.4319 -65.8730 171° South 452 520 37,000  Level FlightAware Transoceanic
02:27AM 25.3073 -65.8505 171° South 452 520 37,000  Level FlightAware Transoceanic
02:28AM 25.1826 -65.8281 171° South 452 520 37,000  Level FlightAware Transoceanic
02:29AM 25.0580 -65.8057 171° South 452 520 37,000  Level FlightAware Transoceanic
02:30AM 24.9333 -65.7833 185° South 452 520 37,000  Level FlightAware Transoceanic
02:31AM 24.8125 -65.7947 185° South 452 520 37,000  Level FlightAware Transoceanic
02:32AM 24.6917 -65.8060 185° South 452 520 37,000  Level FlightAware Transoceanic
02:33AM 24.5709 -65.8173 185° South 452 520 37,000  Level FlightAware Transoceanic
02:34AM 24.4500 -65.8286 185° South 452 520 37,000  Level FlightAware Transoceanic
02:35AM 24.3292 -65.8399 185° South 452 520 37,000  Level FlightAware Transoceanic
02:36AM 24.2084 -65.8511 185° South 452 520 37,000  Level FlightAware Transoceanic
02:37AM 24.0875 -65.8623 185° South 452 520 37,000  Level FlightAware Transoceanic
02:38AM 23.9667 -65.8735 185° South 452 520 37,000  Level FlightAware Transoceanic
02:39AM 23.8459 -65.8847 185° South 452 520 37,000  Level FlightAware Transoceanic
02:40AM 23.7251 -65.8959 185° South 452 520 37,000  Level FlightAware Transoceanic
02:41AM 23.6042 -65.9070 185° South 452 520 37,000  Level FlightAware Transoceanic
02:42AM 23.4834 -65.9181 185° South 452 520 37,000  Level FlightAware Transoceanic
02:42AM 24.9333 -65.7833 185° South 453 521 37,000  Level New York Oceanic (ODAPS)
02:43AM 23.3626 -65.9292 185° South 452 520 37,000  Level FlightAware Transoceanic
02:44AM 23.2417 -65.9403 185° South 452 520 37,000  Level FlightAware Transoceanic
02:45AM 23.1209 -65.9514 185° South 452 520 37,000  Level FlightAware Transoceanic
02:46AM 23.0000 -65.9624 185° South 452 520 37,000  Level FlightAware Transoceanic
02:47AM 22.8792 -65.9734 185° South 452 520 37,000  Level FlightAware Transoceanic
02:48AM 22.6638 -65.9930 185° South 453 521 37,000  Level FlightAware Transoceanic
02:49AM 22.5377 -66.0044 185° South 453 521 37,000  Level FlightAware Transoceanic
02:49AM 22.5333 -66.0000 180° South 390 449 37,000  Level San Juan Center
02:50AM 22.4116 -66.0159 185° South 453 521 37,000  Level FlightAware Transoceanic
02:50AM 22.4167 -66.0167 188° South 480 552 37,000  Level San Juan Center
02:51AM 22.2855 -66.0273 185° South 453 521 37,000  Level FlightAware Transoceanic
02:51AM 22.2833 -66.0333 187° South 440 506 37,000  Level San Juan Center
02:52AM 22.1594 -66.0386 185° South 453 521 37,000  Level FlightAware Transoceanic
02:52AM 22.1667 -66.0500 188° South 430 495 37,000  Level San Juan Center
02:53AM 22.0333 -66.0500 180° South 453 521 37,000  Level FlightAware Transoceanic
02:53AM 22.0500 -66.0500 180° South 430 495 37,000  Level San Juan Center
02:54AM 21.9200 -66.0500 180° South 453 521 37,000  Level FlightAware Transoceanic
02:54AM 21.9333 -66.0500 180° South 440 506 37,000  Level San Juan Center
02:55AM 21.8167 -66.0500 180° South 380 437 37,000  Level San Juan Center
02:56AM 21.6833 -66.0667 187° South 410 472 37,000  Level San Juan Center
02:57AM 21.5667 -66.0500 172° South 480 552 37,000  Level San Juan Center
02:58AM 21.4333 -66.0667 187° South 430 495 37,000  Level San Juan Center
02:59AM 21.3167 -66.0833 188° South 430 495 37,000  Level San Juan Center
03:00AM 21.1833 -66.0833 180° South 440 506 37,000  Level San Juan Center
03:01AM 21.0667 -66.0833 180° South 450 518 37,000  Level San Juan Center
03:02AM 20.9333 -66.1000 187° South 430 495 37,000  Level San Juan Center
03:03AM 20.8167 -66.0833 172° South 430 495 37,000  Level San Juan Center
03:04AM 20.7000 -66.0833 180° South 430 495 37,000  Level San Juan Center
03:05AM 20.5667 -66.1000 187° South 440 506 37,000  Level San Juan Center
03:06AM 20.4333 -66.1000 180° South 440 506 37,000  Level San Juan Center
03:07AM 20.3167 -66.1000 180° South 440 506 37,000 -540 Level San Juan Center
03:08AM 20.2000 -66.1167 188° South 440 506 36,000 -1,800 Descending San Juan Center
03:09AM 20.0833 -66.1167 180° South 440 506 33,400 -2,880 Descending San Juan Center
03:10AM 19.9500 -66.1167 180° South 450 518 30,200 -3,000 Descending San Juan Center
03:11AM 19.8167 -66.1500 193° South 440 506 27,500 -2,580 Descending San Juan Center
03:12AM 19.7000 -66.1833 195° South 450 518 25,000 -2,520 Descending San Juan Center
03:13AM 19.5667 -66.2167 193° South 440 506 22,500 -3,480 Descending San Juan Center
03:14AM 19.4667 -66.2167 180° South 430 495 18,100 -4,020 Descending San Juan Center
03:15AM 19.3333 -66.2167 180° South 430 495 14,500 -3,000 Descending San Juan Center
03:16AM 19.2333 -66.2167 180° South 390 449 12,100 -2,040 Descending San Juan Center
03:17AM 19.1333 -66.2167 180° South 370 426 10,500 -1,200 Descending San Juan Center
03:18AM 19.0333 -66.2000 171° South 310 357 9,700 -1,020 Descending San Juan Center
03:19AM 18.9500 -66.2000 180° South 290 334 8,500 -1,260 Descending San Juan Center
03:20AM 18.8833 -66.2000 180° South 290 334 7,200 -1,500 Descending San Juan Center
03:21AM 18.8000 -66.2000 180° South 280 322 5,500 -1,800 Descending San Juan Center
03:22AM 18.7167 -66.2000 180° South 280 322 3,700 -1,740 Descending San Juan Center
03:23AM 18.6500 -66.2000 180° South 270 311 2,000 -900 Descending San Juan Center
03:24AM 18.5667 -66.2000 180° South 250 288 2,000  Level San Juan Center
03:25AM 18.5000 -66.2000 180° South 230 265 2,000  Level San Juan Center
03:26AM 18.4500 -66.1833 162° South 210 242 2,100  Climbing San Juan Center
03:27AM 18.4333 -66.1333 109° East 170 196 2,000 -300 Descending San Juan Center
03:28AM 18.4333 -66.0833 90° East 160 184 1,600 -600 Descending San Juan Center
03:29AM 18.4333 -66.0500 90° East 120 138 900 -660 Descending San Juan Center
03:30AM 18.4333 -66.0167 90° East 130 150 300 -600 Descending San Juan Center